sensor_id;sensor_type;location;lat;lon;timestamp;pressure;altitude;pressure_sealevel;temperature;humidity
22333;BME280;11334;36.986;-121.936;2022-11-20T00:02:01;101552.69;;;19.14;32.51
22333;BME280;11334;36.986;-121.936;2022-11-20T00:04:27;101554.09;;;19.10;32.56
22333;BME280;11334;36.986;-121.936;2022-11-20T00:06:53;101557.16;;;19.07;32.27
22333;BME280;11334;36.986;-121.936;2022-11-20T00:09:20;101555.69;;;19.04;32.38
22333;BME280;11334;36.986;-121.936;2022-11-20T00:11:46;101552.56;;;19.01;32.34
22333;BME280;11334;36.986;-121.936;2022-11-20T00:14:12;101553.78;;;18.99;32.39
22333;BME280;11334;36.986;-121.936;2022-11-20T00:16:38;101560.53;;;18.95;32.79
22333;BME280;11334;36.986;-121.936;2022-11-20T00:19:04;101555.75;;;18.90;33.35
22333;BME280;11334;36.986;-121.936;2022-11-20T00:21:31;101559.81;;;18.86;33.69
22333;BME280;11334;36.986;-121.936;2022-11-20T00:23:57;101559.94;;;18.78;34.25
22333;BME280;11334;36.986;-121.936;2022-11-20T00:26:25;101564.22;;;18.73;35.03
22333;BME280;11334;36.986;-121.936;2022-11-20T00:28:54;101568.84;;;18.65;35.25
22333;BME280;11334;36.986;-121.936;2022-11-20T00:31:21;101572.28;;;18.59;36.58
22333;BME280;11334;36.986;-121.936;2022-11-20T00:33:47;101574.88;;;18.52;37.01
22333;BME280;11334;36.986;-121.936;2022-11-20T00:36:17;101571.94;;;18.47;37.73
22333;BME280;11334;36.986;-121.936;2022-11-20T00:38:44;101567.50;;;18.40;38.26
22333;BME280;11334;36.986;-121.936;2022-11-20T00:41:15;101576.09;;;18.35;38.84
22333;BME280;11334;36.986;-121.936;2022-11-20T00:43:42;101581.38;;;18.29;39.30
22333;BME280;11334;36.986;-121.936;2022-11-20T00:46:14;101572.59;;;18.21;40.10
22333;BME280;11334;36.986;-121.936;2022-11-20T00:48:41;101581.56;;;18.13;41.16
22333;BME280;11334;36.986;-121.936;2022-11-20T00:51:07;101589.91;;;18.04;41.14
22333;BME280;11334;36.986;-121.936;2022-11-20T00:53:34;101589.28;;;17.94;41.22
22333;BME280;11334;36.986;-121.936;2022-11-20T00:56:05;101584.19;;;17.85;41.58
22333;BME280;11334;36.986;-121.936;2022-11-20T00:58:34;101594.81;;;17.78;42.12
22333;BME280;11334;36.986;-121.936;2022-11-20T01:03:35;101597.81;;;17.61;42.69
22333;BME280;11334;36.986;-121.936;2022-11-20T01:06:07;101595.03;;;17.55;43.00
22333;BME280;11334;36.986;-121.936;2022-11-20T01:08:35;101600.16;;;17.42;42.99
22333;BME280;11334;36.986;-121.936;2022-11-20T01:11:04;101603.44;;;17.30;43.31
22333;BME280;11334;36.986;-121.936;2022-11-20T01:13:31;101602.19;;;17.18;43.71
22333;BME280;11334;36.986;-121.936;2022-11-20T01:18:45;101606.47;;;16.97;43.68
22333;BME280;11334;36.986;-121.936;2022-11-20T01:21:18;101622.41;;;16.90;43.85
22333;BME280;11334;36.986;-121.936;2022-11-20T01:23:45;101620.94;;;16.80;44.02
22333;BME280;11334;36.986;-121.936;2022-11-20T01:26:14;101615.31;;;16.67;44.14
22333;BME280;11334;36.986;-121.936;2022-11-20T01:28:41;101619.88;;;16.59;44.46
22333;BME280;11334;36.986;-121.936;2022-11-20T01:31:18;101619.94;;;16.51;44.77
22333;BME280;11334;36.986;-121.936;2022-11-20T01:33:46;101624.31;;;16.36;45.24
22333;BME280;11334;36.986;-121.936;2022-11-20T01:36:13;101621.50;;;16.30;45.32
22333;BME280;11334;36.986;-121.936;2022-11-20T01:38:40;101620.50;;;16.23;45.27
22333;BME280;11334;36.986;-121.936;2022-11-20T01:41:07;101636.75;;;16.13;45.12
22333;BME280;11334;36.986;-121.936;2022-11-20T01:43:34;101636.09;;;16.04;45.78
22333;BME280;11334;36.986;-121.936;2022-11-20T01:46:19;101635.91;;;15.97;45.27
22333;BME280;11334;36.986;-121.936;2022-11-20T01:51:26;101633.09;;;15.83;45.49
22333;BME280;11334;36.986;-121.936;2022-11-20T01:53:57;101637.28;;;15.70;45.47
22333;BME280;11334;36.986;-121.936;2022-11-20T01:56:27;101643.13;;;15.57;45.96
22333;BME280;11334;36.986;-121.936;2022-11-20T01:58:58;101643.44;;;15.47;46.28
22333;BME280;11334;36.986;-121.936;2022-11-20T02:01:24;101647.59;;;15.41;46.71
22333;BME280;11334;36.986;-121.936;2022-11-20T02:03:50;101645.75;;;15.34;46.93
22333;BME280;11334;36.986;-121.936;2022-11-20T02:06:24;101651.25;;;15.24;47.15
22333;BME280;11334;36.986;-121.936;2022-11-20T02:08:52;101659.78;;;15.20;46.83
22333;BME280;11334;36.986;-121.936;2022-11-20T02:11:19;101655.59;;;15.10;47.20
22333;BME280;11334;36.986;-121.936;2022-11-20T02:13:46;101658.34;;;15.00;46.90
22333;BME280;11334;36.986;-121.936;2022-11-20T02:16:19;101671.69;;;14.92;47.42
22333;BME280;11334;36.986;-121.936;2022-11-20T02:18:46;101668.47;;;14.89;47.27
22333;BME280;11334;36.986;-121.936;2022-11-20T02:21:40;101668.31;;;14.83;47.63
22333;BME280;11334;36.986;-121.936;2022-11-20T02:24:16;101672.25;;;14.71;47.83
22333;BME280;11334;36.986;-121.936;2022-11-20T02:26:56;101674.03;;;14.62;48.35
22333;BME280;11334;36.986;-121.936;2022-11-20T02:29:36;101652.66;;;14.54;47.34
22333;BME280;11334;36.986;-121.936;2022-11-20T02:32:03;101675.00;;;14.53;48.19
22333;BME280;11334;36.986;-121.936;2022-11-20T02:34:30;101678.47;;;14.46;48.67
22333;BME280;11334;36.986;-121.936;2022-11-20T02:36:57;101678.91;;;14.34;49.12
22333;BME280;11334;36.986;-121.936;2022-11-20T02:39:26;101674.13;;;14.20;48.98
22333;BME280;11334;36.986;-121.936;2022-11-20T02:41:54;101680.47;;;14.19;49.56
22333;BME280;11334;36.986;-121.936;2022-11-20T02:44:21;101686.63;;;14.20;49.03
22333;BME280;11334;36.986;-121.936;2022-11-20T02:46:47;101670.53;;;14.04;49.28
22333;BME280;11334;36.986;-121.936;2022-11-20T02:49:13;101696.56;;;14.10;49.43
22333;BME280;11334;36.986;-121.936;2022-11-20T02:51:40;101692.53;;;14.06;49.09
22333;BME280;11334;36.986;-121.936;2022-11-20T02:54:06;101695.56;;;13.93;49.35
22333;BME280;11334;36.986;-121.936;2022-11-20T02:56:32;101695.41;;;13.95;49.23
22333;BME280;11334;36.986;-121.936;2022-11-20T02:58:58;101703.72;;;13.92;49.21
22333;BME280;11334;36.986;-121.936;2022-11-20T03:01:24;101705.19;;;13.87;49.25
22333;BME280;11334;36.986;-121.936;2022-11-20T03:03:51;101701.44;;;13.80;49.37
22333;BME280;11334;36.986;-121.936;2022-11-20T03:06:20;101714.72;;;13.72;49.42
22333;BME280;11334;36.986;-121.936;2022-11-20T03:08:46;101723.84;;;13.69;50.11
22333;BME280;11334;36.986;-121.936;2022-11-20T03:11:12;101712.25;;;13.61;49.46
22333;BME280;11334;36.986;-121.936;2022-11-20T03:13:38;101725.19;;;13.56;49.31
22333;BME280;11334;36.986;-121.936;2022-11-20T03:16:09;101724.97;;;13.50;49.94
22333;BME280;11334;36.986;-121.936;2022-11-20T03:18:36;101735.56;;;13.42;50.56
22333;BME280;11334;36.986;-121.936;2022-11-20T03:21:03;101722.31;;;13.32;50.21
22333;BME280;11334;36.986;-121.936;2022-11-20T03:23:30;101729.72;;;13.29;50.92
22333;BME280;11334;36.986;-121.936;2022-11-20T03:26:11;101725.16;;;13.22;51.17
22333;BME280;11334;36.986;-121.936;2022-11-20T03:28:38;101728.56;;;13.14;51.48
22333;BME280;11334;36.986;-121.936;2022-11-20T03:31:13;101727.38;;;12.99;51.44
22333;BME280;11334;36.986;-121.936;2022-11-20T03:33:41;101734.41;;;13.00;51.29
22333;BME280;11334;36.986;-121.936;2022-11-20T03:36:10;101735.38;;;12.99;50.38
22333;BME280;11334;36.986;-121.936;2022-11-20T03:38:37;101737.22;;;12.90;51.43
22333;BME280;11334;36.986;-121.936;2022-11-20T03:41:06;101736.84;;;12.85;51.09
22333;BME280;11334;36.986;-121.936;2022-11-20T03:43:33;101736.16;;;12.83;51.12
22333;BME280;11334;36.986;-121.936;2022-11-20T03:46:00;101743.97;;;12.84;51.09
22333;BME280;11334;36.986;-121.936;2022-11-20T03:48:27;101743.28;;;12.82;50.91
22333;BME280;11334;36.986;-121.936;2022-11-20T03:51:10;101752.13;;;12.73;51.73
22333;BME280;11334;36.986;-121.936;2022-11-20T03:53:37;101757.88;;;12.69;52.44
22333;BME280;11334;36.986;-121.936;2022-11-20T03:56:03;101752.75;;;12.58;52.90
22333;BME280;11334;36.986;-121.936;2022-11-20T03:58:30;101761.97;;;12.54;52.60
22333;BME280;11334;36.986;-121.936;2022-11-20T04:00:56;101764.50;;;12.56;52.46
22333;BME280;11334;36.986;-121.936;2022-11-20T04:03:22;101759.63;;;12.51;52.67
22333;BME280;11334;36.986;-121.936;2022-11-20T04:05:49;101761.44;;;12.51;52.87
22333;BME280;11334;36.986;-121.936;2022-11-20T04:08:15;101773.91;;;12.41;53.61
22333;BME280;11334;36.986;-121.936;2022-11-20T04:10:41;101772.94;;;12.32;53.26
22333;BME280;11334;36.986;-121.936;2022-11-20T04:13:07;101773.13;;;12.22;54.05
22333;BME280;11334;36.986;-121.936;2022-11-20T04:15:33;101773.53;;;12.17;53.93
22333;BME280;11334;36.986;-121.936;2022-11-20T04:17:59;101769.75;;;12.10;54.92
22333;BME280;11334;36.986;-121.936;2022-11-20T04:20:26;101773.53;;;12.08;54.31
22333;BME280;11334;36.986;-121.936;2022-11-20T04:22:53;101775.94;;;12.11;54.27
22333;BME280;11334;36.986;-121.936;2022-11-20T04:25:20;101778.59;;;12.11;54.09
22333;BME280;11334;36.986;-121.936;2022-11-20T04:27:46;101777.47;;;12.04;54.24
22333;BME280;11334;36.986;-121.936;2022-11-20T04:30:12;101778.31;;;12.04;54.20
22333;BME280;11334;36.986;-121.936;2022-11-20T04:32:39;101777.47;;;12.04;53.88
22333;BME280;11334;36.986;-121.936;2022-11-20T04:35:05;101771.31;;;11.94;54.23
22333;BME280;11334;36.986;-121.936;2022-11-20T04:37:31;101778.00;;;11.98;54.52
22333;BME280;11334;36.986;-121.936;2022-11-20T04:39:57;101772.69;;;11.98;54.71
22333;BME280;11334;36.986;-121.936;2022-11-20T04:42:24;101777.19;;;11.88;54.28
22333;BME280;11334;36.986;-121.936;2022-11-20T04:44:57;101776.09;;;11.81;54.18
22333;BME280;11334;36.986;-121.936;2022-11-20T04:47:23;101778.88;;;11.80;54.59
22333;BME280;11334;36.986;-121.936;2022-11-20T04:49:50;101784.47;;;11.77;54.62
22333;BME280;11334;36.986;-121.936;2022-11-20T04:52:16;101796.31;;;11.73;54.62
22333;BME280;11334;36.986;-121.936;2022-11-20T04:54:42;101789.75;;;11.68;55.54
22333;BME280;11334;36.986;-121.936;2022-11-20T04:57:08;101791.41;;;11.68;55.50
22333;BME280;11334;36.986;-121.936;2022-11-20T04:59:34;101799.09;;;11.53;55.87
22333;BME280;11334;36.986;-121.936;2022-11-20T05:02:01;101795.88;;;11.59;56.15
22333;BME280;11334;36.986;-121.936;2022-11-20T05:04:27;101801.19;;;11.49;55.82
22333;BME280;11334;36.986;-121.936;2022-11-20T05:06:53;101800.31;;;11.49;55.39
22333;BME280;11334;36.986;-121.936;2022-11-20T05:09:19;101807.34;;;11.50;55.17
22333;BME280;11334;36.986;-121.936;2022-11-20T05:11:45;101811.94;;;11.48;55.55
22333;BME280;11334;36.986;-121.936;2022-11-20T05:14:12;101814.91;;;11.25;56.18
22333;BME280;11334;36.986;-121.936;2022-11-20T05:16:38;101815.63;;;11.27;56.24
22333;BME280;11334;36.986;-121.936;2022-11-20T05:19:04;101820.22;;;11.25;56.34
22333;BME280;11334;36.986;-121.936;2022-11-20T05:21:31;101825.09;;;11.20;56.04
22333;BME280;11334;36.986;-121.936;2022-11-20T05:23:58;101821.34;;;11.22;56.17
22333;BME280;11334;36.986;-121.936;2022-11-20T05:26:24;101826.75;;;11.21;56.89
22333;BME280;11334;36.986;-121.936;2022-11-20T05:28:51;101831.47;;;11.08;57.03
22333;BME280;11334;36.986;-121.936;2022-11-20T05:31:21;101833.56;;;11.14;56.20
22333;BME280;11334;36.986;-121.936;2022-11-20T05:33:47;101835.75;;;11.00;57.25
22333;BME280;11334;36.986;-121.936;2022-11-20T05:36:14;101835.22;;;11.05;56.49
22333;BME280;11334;36.986;-121.936;2022-11-20T05:38:42;101837.16;;;11.03;56.71
22333;BME280;11334;36.986;-121.936;2022-11-20T05:41:11;101833.94;;;11.00;56.66
22333;BME280;11334;36.986;-121.936;2022-11-20T05:43:40;101834.22;;;10.97;56.44
22333;BME280;11334;36.986;-121.936;2022-11-20T05:46:07;101833.78;;;10.92;56.69
22333;BME280;11334;36.986;-121.936;2022-11-20T05:48:35;101840.03;;;10.91;56.79
22333;BME280;11334;36.986;-121.936;2022-11-20T05:51:03;101831.63;;;10.86;56.75
22333;BME280;11334;36.986;-121.936;2022-11-20T05:53:29;101833.34;;;10.87;56.59
22333;BME280;11334;36.986;-121.936;2022-11-20T05:56:00;101841.84;;;10.91;56.52
22333;BME280;11334;36.986;-121.936;2022-11-20T05:58:27;101834.44;;;10.85;56.78
22333;BME280;11334;36.986;-121.936;2022-11-20T06:00:54;101845.44;;;10.80;57.20
22333;BME280;11334;36.986;-121.936;2022-11-20T06:03:20;101837.75;;;10.77;57.13
22333;BME280;11334;36.986;-121.936;2022-11-20T06:05:47;101848.72;;;10.73;57.41
22333;BME280;11334;36.986;-121.936;2022-11-20T06:08:13;101847.75;;;10.74;57.33
22333;BME280;11334;36.986;-121.936;2022-11-20T06:10:39;101860.81;;;10.66;57.61
22333;BME280;11334;36.986;-121.936;2022-11-20T06:13:05;101857.00;;;10.59;57.58
22333;BME280;11334;36.986;-121.936;2022-11-20T06:15:31;101872.63;;;10.42;58.99
22333;BME280;11334;36.986;-121.936;2022-11-20T06:17:57;101861.22;;;10.41;58.79
22333;BME280;11334;36.986;-121.936;2022-11-20T06:20:24;101863.59;;;10.44;57.93
22333;BME280;11334;36.986;-121.936;2022-11-20T06:22:50;101864.75;;;10.51;58.22
22333;BME280;11334;36.986;-121.936;2022-11-20T06:25:16;101867.06;;;10.45;58.29
22333;BME280;11334;36.986;-121.936;2022-11-20T06:27:43;101871.16;;;10.49;58.10
22333;BME280;11334;36.986;-121.936;2022-11-20T06:30:09;101864.31;;;10.46;58.17
22333;BME280;11334;36.986;-121.936;2022-11-20T06:32:35;101880.97;;;10.38;58.61
22333;BME280;11334;36.986;-121.936;2022-11-20T06:35:02;101879.03;;;10.40;58.67
22333;BME280;11334;36.986;-121.936;2022-11-20T06:37:28;101870.72;;;10.44;58.31
22333;BME280;11334;36.986;-121.936;2022-11-20T06:39:54;101881.69;;;10.40;57.94
22333;BME280;11334;36.986;-121.936;2022-11-20T06:42:21;101874.75;;;10.28;58.54
22333;BME280;11334;36.986;-121.936;2022-11-20T06:44:47;101869.34;;;10.29;58.36
22333;BME280;11334;36.986;-121.936;2022-11-20T06:47:13;101868.25;;;10.32;58.74
22333;BME280;11334;36.986;-121.936;2022-11-20T06:49:39;101873.19;;;10.25;58.92
22333;BME280;11334;36.986;-121.936;2022-11-20T06:52:05;101861.69;;;10.15;59.16
22333;BME280;11334;36.986;-121.936;2022-11-20T06:54:31;101838.28;;;10.00;59.09
22333;BME280;11334;36.986;-121.936;2022-11-20T06:56:58;101860.47;;;10.19;59.57
22333;BME280;11334;36.986;-121.936;2022-11-20T06:59:24;101857.00;;;10.19;58.65
22333;BME280;11334;36.986;-121.936;2022-11-20T07:01:50;101855.28;;;10.18;58.27
22333;BME280;11334;36.986;-121.936;2022-11-20T07:04:16;101861.75;;;10.05;59.10
22333;BME280;11334;36.986;-121.936;2022-11-20T07:06:42;101864.00;;;10.09;59.10
22333;BME280;11334;36.986;-121.936;2022-11-20T07:09:09;101860.78;;;10.06;58.96
22333;BME280;11334;36.986;-121.936;2022-11-20T07:11:35;101860.56;;;9.98;59.15
22333;BME280;11334;36.986;-121.936;2022-11-20T07:14:02;101863.56;;;10.04;59.16
22333;BME280;11334;36.986;-121.936;2022-11-20T07:16:28;101865.97;;;9.85;59.91
22333;BME280;11334;36.986;-121.936;2022-11-20T07:18:57;101863.84;;;9.79;59.90
22333;BME280;11334;36.986;-121.936;2022-11-20T07:21:24;101870.47;;;9.74;59.82
22333;BME280;11334;36.986;-121.936;2022-11-20T07:23:50;101860.47;;;9.77;59.65
22333;BME280;11334;36.986;-121.936;2022-11-20T07:26:16;101861.25;;;9.69;60.36
22333;BME280;11334;36.986;-121.936;2022-11-20T07:28:44;101860.00;;;9.73;59.73
22333;BME280;11334;36.986;-121.936;2022-11-20T07:31:11;101865.78;;;9.77;59.69
22333;BME280;11334;36.986;-121.936;2022-11-20T07:33:38;101869.50;;;9.75;59.49
22333;BME280;11334;36.986;-121.936;2022-11-20T07:36:05;101873.06;;;9.54;59.94
22333;BME280;11334;36.986;-121.936;2022-11-20T07:38:31;101873.88;;;9.54;60.19
22333;BME280;11334;36.986;-121.936;2022-11-20T07:40:57;101871.72;;;9.59;59.93
22333;BME280;11334;36.986;-121.936;2022-11-20T07:43:24;101875.91;;;9.62;59.62
22333;BME280;11334;36.986;-121.936;2022-11-20T07:45:50;101879.03;;;9.56;60.27
22333;BME280;11334;36.986;-121.936;2022-11-20T07:48:17;101878.81;;;9.59;60.36
22333;BME280;11334;36.986;-121.936;2022-11-20T07:50:43;101876.88;;;9.61;60.26
22333;BME280;11334;36.986;-121.936;2022-11-20T07:53:10;101882.28;;;9.59;59.88
22333;BME280;11334;36.986;-121.936;2022-11-20T07:55:36;101873.31;;;9.40;61.44
22333;BME280;11334;36.986;-121.936;2022-11-20T07:58:02;101877.25;;;9.45;60.59
22333;BME280;11334;36.986;-121.936;2022-11-20T08:00:28;101875.44;;;9.46;60.58
22333;BME280;11334;36.986;-121.936;2022-11-20T08:02:54;101879.78;;;9.47;60.02
22333;BME280;11334;36.986;-121.936;2022-11-20T08:05:21;101879.91;;;9.45;60.54
22333;BME280;11334;36.986;-121.936;2022-11-20T08:07:48;101882.28;;;9.48;59.77
22333;BME280;11334;36.986;-121.936;2022-11-20T08:10:15;101885.56;;;9.30;60.96
22333;BME280;11334;36.986;-121.936;2022-11-20T08:12:51;101875.22;;;9.38;60.25
22333;BME280;11334;36.986;-121.936;2022-11-20T08:15:37;101878.59;;;9.40;60.42
22333;BME280;11334;36.986;-121.936;2022-11-20T08:18:06;101875.56;;;9.34;60.49
22333;BME280;11334;36.986;-121.936;2022-11-20T08:20:33;101875.56;;;9.34;60.39
22333;BME280;11334;36.986;-121.936;2022-11-20T08:23:04;101871.25;;;9.33;60.35
22333;BME280;11334;36.986;-121.936;2022-11-20T08:25:35;101872.44;;;9.29;60.20
22333;BME280;11334;36.986;-121.936;2022-11-20T08:28:08;101874.00;;;9.31;59.74
22333;BME280;11334;36.986;-121.936;2022-11-20T08:30:35;101879.44;;;9.30;59.57
22333;BME280;11334;36.986;-121.936;2022-11-20T08:33:07;101880.88;;;9.23;60.15
22333;BME280;11334;36.986;-121.936;2022-11-20T08:35:37;101871.50;;;9.19;60.49
22333;BME280;11334;36.986;-121.936;2022-11-20T08:38:05;101871.38;;;9.20;60.40
22333;BME280;11334;36.986;-121.936;2022-11-20T08:40:33;101870.56;;;9.20;60.05
22333;BME280;11334;36.986;-121.936;2022-11-20T08:42:59;101865.50;;;9.17;60.63
22333;BME280;11334;36.986;-121.936;2022-11-20T08:45:26;101858.78;;;9.13;60.39
22333;BME280;11334;36.986;-121.936;2022-11-20T08:47:52;101864.16;;;9.12;60.68
22333;BME280;11334;36.986;-121.936;2022-11-20T08:50:19;101862.25;;;9.13;60.74
22333;BME280;11334;36.986;-121.936;2022-11-20T08:52:45;101871.13;;;9.02;60.45
22333;BME280;11334;36.986;-121.936;2022-11-20T08:55:12;101871.28;;;9.00;60.54
22333;BME280;11334;36.986;-121.936;2022-11-20T08:57:38;101875.72;;;9.00;60.98
22333;BME280;11334;36.986;-121.936;2022-11-20T09:00:06;101861.28;;;8.93;61.37
22333;BME280;11334;36.986;-121.936;2022-11-20T09:02:33;101868.97;;;8.96;60.85
22333;BME280;11334;36.986;-121.936;2022-11-20T09:05:00;101869.34;;;8.91;60.82
22333;BME280;11334;36.986;-121.936;2022-11-20T09:07:28;101862.00;;;8.84;61.47
22333;BME280;11334;36.986;-121.936;2022-11-20T09:09:54;101853.63;;;8.90;60.95
22333;BME280;11334;36.986;-121.936;2022-11-20T09:12:20;101861.75;;;8.87;61.02
22333;BME280;11334;36.986;-121.936;2022-11-20T09:14:47;101858.53;;;8.73;61.80
22333;BME280;11334;36.986;-121.936;2022-11-20T09:17:13;101850.47;;;8.74;61.50
22333;BME280;11334;36.986;-121.936;2022-11-20T09:19:40;101855.03;;;8.72;61.35
22333;BME280;11334;36.986;-121.936;2022-11-20T09:22:06;101849.50;;;8.86;60.57
22333;BME280;11334;36.986;-121.936;2022-11-20T09:24:33;101853.13;;;8.85;60.84
22333;BME280;11334;36.986;-121.936;2022-11-20T09:27:02;101853.00;;;8.76;61.43
22333;BME280;11334;36.986;-121.936;2022-11-20T09:29:28;101859.84;;;8.78;61.10
22333;BME280;11334;36.986;-121.936;2022-11-20T09:31:54;101863.56;;;8.76;61.21
22333;BME280;11334;36.986;-121.936;2022-11-20T09:34:21;101859.13;;;8.76;61.17
22333;BME280;11334;36.986;-121.936;2022-11-20T09:36:47;101861.03;;;8.74;61.23
22333;BME280;11334;36.986;-121.936;2022-11-20T09:39:13;101863.91;;;8.60;62.11
22333;BME280;11334;36.986;-121.936;2022-11-20T09:42:18;101865.81;;;8.58;61.04
22333;BME280;11334;36.986;-121.936;2022-11-20T09:50:25;101865.81;;;8.48;61.93
22333;BME280;11334;36.986;-121.936;2022-11-20T09:53:27;101859.94;;;8.55;61.56
22333;BME280;11334;36.986;-121.936;2022-11-20T09:55:57;101860.78;;;8.55;61.03
22333;BME280;11334;36.986;-121.936;2022-11-20T09:58:38;101864.34;;;8.54;61.38
22333;BME280;11334;36.986;-121.936;2022-11-20T10:01:21;101867.72;;;8.56;61.23
22333;BME280;11334;36.986;-121.936;2022-11-20T10:09:37;101868.53;;;8.46;61.71
22333;BME280;11334;36.986;-121.936;2022-11-20T10:12:14;101865.66;;;8.38;62.00
22333;BME280;11334;36.986;-121.936;2022-11-20T10:15:10;101864.81;;;8.38;61.91
22333;BME280;11334;36.986;-121.936;2022-11-20T10:25:22;101868.03;;;8.30;61.63
22333;BME280;11334;36.986;-121.936;2022-11-20T10:28:06;101873.16;;;8.32;61.42
22333;BME280;11334;36.986;-121.936;2022-11-20T10:30:40;101873.41;;;8.29;61.26
22333;BME280;11334;36.986;-121.936;2022-11-20T10:33:16;101877.28;;;8.36;61.50
22333;BME280;11334;36.986;-121.936;2022-11-20T10:35:49;101867.41;;;8.27;61.56
22333;BME280;11334;36.986;-121.936;2022-11-20T10:38:25;101872.56;;;8.28;62.08
22333;BME280;11334;36.986;-121.936;2022-11-20T10:41:00;101870.38;;;8.22;62.13
22333;BME280;11334;36.986;-121.936;2022-11-20T10:43:46;101868.69;;;8.21;62.74
22333;BME280;11334;36.986;-121.936;2022-11-20T10:46:19;101863.16;;;8.14;62.53
22333;BME280;11334;36.986;-121.936;2022-11-20T10:48:50;101869.16;;;8.16;62.20
22333;BME280;11334;36.986;-121.936;2022-11-20T10:56:53;101865.81;;;8.14;62.32
22333;BME280;11334;36.986;-121.936;2022-11-20T11:02:18;101862.75;;;8.07;62.15
22333;BME280;11334;36.986;-121.936;2022-11-20T11:04:50;101867.94;;;8.09;62.11
22333;BME280;11334;36.986;-121.936;2022-11-20T11:07:24;101859.81;;;7.99;62.37
22333;BME280;11334;36.986;-121.936;2022-11-20T11:09:54;101858.75;;;8.02;62.47
22333;BME280;11334;36.986;-121.936;2022-11-20T11:12:23;101864.88;;;8.02;61.74
22333;BME280;11334;36.986;-121.936;2022-11-20T11:14:52;101859.25;;;8.07;62.42
22333;BME280;11334;36.986;-121.936;2022-11-20T11:17:24;101863.69;;;8.06;62.18
22333;BME280;11334;36.986;-121.936;2022-11-20T11:22:50;101860.56;;;8.01;61.46
22333;BME280;11334;36.986;-121.936;2022-11-20T11:25:35;101855.63;;;7.97;62.58
22333;BME280;11334;36.986;-121.936;2022-11-20T11:28:17;101868.19;;;7.93;62.16
22333;BME280;11334;36.986;-121.936;2022-11-20T11:30:45;101860.84;;;7.86;62.34
22333;BME280;11334;36.986;-121.936;2022-11-20T11:33:22;101866.13;;;7.86;62.87
22333;BME280;11334;36.986;-121.936;2022-11-20T11:35:56;101862.97;;;7.81;63.27
22333;BME280;11334;36.986;-121.936;2022-11-20T11:38:35;101863.81;;;7.82;62.83
22333;BME280;11334;36.986;-121.936;2022-11-20T11:41:04;101857.56;;;7.83;63.64
22333;BME280;11334;36.986;-121.936;2022-11-20T11:43:35;101862.34;;;7.78;63.40
22333;BME280;11334;36.986;-121.936;2022-11-20T11:49:18;101865.72;;;7.80;63.19
22333;BME280;11334;36.986;-121.936;2022-11-20T11:57:14;101873.34;;;7.72;63.15
22333;BME280;11334;36.986;-121.936;2022-11-20T12:00:05;101871.59;;;7.60;63.25
22333;BME280;11334;36.986;-121.936;2022-11-20T12:02:46;101876.13;;;7.58;63.55
22333;BME280;11334;36.986;-121.936;2022-11-20T12:07:55;101871.22;;;7.54;63.34
22333;BME280;11334;36.986;-121.936;2022-11-20T12:13:53;101868.72;;;7.40;63.67
22333;BME280;11334;36.986;-121.936;2022-11-20T12:15:54;101878.94;;;7.44;63.83
22333;BME280;11334;36.986;-121.936;2022-11-20T12:18:22;101878.19;;;7.42;63.49
22333;BME280;11334;36.986;-121.936;2022-11-20T12:26:36;101886.53;;;7.49;63.24
22333;BME280;11334;36.986;-121.936;2022-11-20T12:29:24;101891.06;;;7.47;62.80
22333;BME280;11334;36.986;-121.936;2022-11-20T12:35:20;101882.13;;;7.37;63.28
22333;BME280;11334;36.986;-121.936;2022-11-20T12:38:24;101890.03;;;7.37;62.88
22333;BME280;11334;36.986;-121.936;2022-11-20T12:46:47;101881.91;;;7.27;63.95
22333;BME280;11334;36.986;-121.936;2022-11-20T12:52:16;101896.91;;;7.15;64.62
22333;BME280;11334;36.986;-121.936;2022-11-20T12:55:21;101890.69;;;7.16;63.79
22333;BME280;11334;36.986;-121.936;2022-11-20T13:00:33;101888.03;;;7.28;63.13
22333;BME280;11334;36.986;-121.936;2022-11-20T13:03:22;101886.75;;;7.33;63.53
22333;BME280;11334;36.986;-121.936;2022-11-20T13:08:28;101897.50;;;7.30;62.95
22333;BME280;11334;36.986;-121.936;2022-11-20T13:19:12;101897.16;;;6.87;64.82
22333;BME280;11334;36.986;-121.936;2022-11-20T13:21:41;101897.97;;;7.00;63.28
22333;BME280;11334;36.986;-121.936;2022-11-20T13:29:36;101904.28;;;7.10;63.21
22333;BME280;11334;36.986;-121.936;2022-11-20T13:32:11;101912.28;;;7.08;63.20
22333;BME280;11334;36.986;-121.936;2022-11-20T13:34:50;101905.97;;;7.11;63.24
22333;BME280;11334;36.986;-121.936;2022-11-20T13:43:00;101914.31;;;7.05;63.27
22333;BME280;11334;36.986;-121.936;2022-11-20T13:45:30;101915.88;;;7.07;62.38
22333;BME280;11334;36.986;-121.936;2022-11-20T13:47:58;101921.25;;;7.06;63.08
22333;BME280;11334;36.986;-121.936;2022-11-20T13:50:44;101919.56;;;7.05;63.82
22333;BME280;11334;36.986;-121.936;2022-11-20T13:56:15;101922.09;;;6.94;63.44
22333;BME280;11334;36.986;-121.936;2022-11-20T14:01:37;101928.09;;;6.96;62.57
22333;BME280;11334;36.986;-121.936;2022-11-20T14:04:08;101922.22;;;6.93;62.83
22333;BME280;11334;36.986;-121.936;2022-11-20T14:06:42;101928.31;;;6.93;62.88
22333;BME280;11334;36.986;-121.936;2022-11-20T14:09:34;101924.00;;;6.92;63.09
22333;BME280;11334;36.986;-121.936;2022-11-20T14:12:01;101927.25;;;6.95;63.24
22333;BME280;11334;36.986;-121.936;2022-11-20T14:14:29;101931.78;;;6.93;63.31
22333;BME280;11334;36.986;-121.936;2022-11-20T14:17:17;101931.69;;;6.95;62.77
22333;BME280;11334;36.986;-121.936;2022-11-20T14:19:45;101930.13;;;6.93;62.79